sensor_id;sensor_type;location;lat;lon;timestamp;pressure;altitude;pressure_sealevel;temperature;humidity
69153;BME280;56261;51.580;4.578;2023-10-09T00:01:06;102216.41;;;15.76;100.00
69153;BME280;56261;51.580;4.578;2023-10-09T00:03:42;102223.31;;;15.79;100.00
69153;BME280;56261;51.580;4.578;2023-10-09T00:06:09;102210.88;;;15.86;100.00
69153;BME280;56261;51.580;4.578;2023-10-09T00:08:37;102198.75;;;15.82;100.00
69153;BME280;56261;51.580;4.578;2023-10-09T00:11:04;102197.75;;;15.83;100.00
69153;BME280;56261;51.580;4.578;2023-10-09T00:13:40;102193.03;;;15.85;100.00
69153;BME280;56261;51.580;4.578;2023-10-09T00:16:16;102193.53;;;15.96;100.00
69153;BME280;56261;51.580;4.578;2023-10-09T00:18:43;102178.00;;;16.07;100.00
69153;BME280;56261;51.580;4.578;2023-10-09T00:21:18;102167.09;;;16.00;100.00
69153;BME280;56261;51.580;4.578;2023-10-09T00:23:53;102174.16;;;16.01;100.00
69153;BME280;56261;51.580;4.578;2023-10-09T00:26:21;102160.00;;;16.07;100.00
69153;BME280;56261;51.580;4.578;2023-10-09T00:28:48;102169.41;;;16.11;100.00
69153;BME280;56261;51.580;4.578;2023-10-09T00:31:16;102173.28;;;16.09;100.00
69153;BME280;56261;51.580;4.578;2023-10-09T00:33:58;102175.47;;;16.13;100.00
69153;BME280;56261;51.580;4.578;2023-10-09T00:36:44;102184.06;;;16.09;100.00
69153;BME280;56261;51.580;4.578;2023-10-09T00:39:16;102189.59;;;16.15;100.00
69153;BME280;56261;51.580;4.578;2023-10-09T00:41:49;102178.88;;;15.99;100.00
69153;BME280;56261;51.580;4.578;2023-10-09T00:44:15;102182.03;;;16.11;100.00
69153;BME280;56261;51.580;4.578;2023-10-09T00:46:40;102182.03;;;16.11;100.00
69153;BME280;56261;51.580;4.578;2023-10-09T00:49:08;102167.75;;;16.10;100.00
69153;BME280;56261;51.580;4.578;2023-10-09T00:51:38;102174.63;;;16.13;100.00
69153;BME280;56261;51.580;4.578;2023-10-09T00:54:08;102159.34;;;16.05;100.00
69153;BME280;56261;51.580;4.578;2023-10-09T00:56:44;102174.47;;;16.14;100.00
69153;BME280;56261;51.580;4.578;2023-10-09T00:59:17;102177.69;;;16.10;100.00
69153;BME280;56261;51.580;4.578;2023-10-09T01:01:46;102189.09;;;16.12;100.00
69153;BME280;56261;51.580;4.578;2023-10-09T01:04:29;102178.31;;;16.12;100.00
69153;BME280;56261;51.580;4.578;2023-10-09T01:06:55;102177.31;;;16.13;100.00
69153;BME280;56261;51.580;4.578;2023-10-09T01:09:35;102174.13;;;16.09;100.00
69153;BME280;56261;51.580;4.578;2023-10-09T01:12:08;102165.72;;;16.12;100.00
69153;BME280;56261;51.580;4.578;2023-10-09T01:14:42;102167.69;;;16.27;100.00
69153;BME280;56261;51.580;4.578;2023-10-09T01:17:08;102167.00;;;16.25;100.00
69153;BME280;56261;51.580;4.578;2023-10-09T01:19:35;102161.16;;;16.21;100.00
69153;BME280;56261;51.580;4.578;2023-10-09T01:22:00;102171.06;;;16.21;100.00
69153;BME280;56261;51.580;4.578;2023-10-09T01:24:37;102165.50;;;16.22;100.00
69153;BME280;56261;51.580;4.578;2023-10-09T01:27:04;102162.97;;;16.21;100.00
69153;BME280;56261;51.580;4.578;2023-10-09T01:29:33;102153.53;;;16.25;100.00
69153;BME280;56261;51.580;4.578;2023-10-09T01:32:00;102164.97;;;16.27;100.00
69153;BME280;56261;51.580;4.578;2023-10-09T01:34:29;102166.34;;;16.23;100.00
69153;BME280;56261;51.580;4.578;2023-10-09T01:37:08;102152.03;;;16.22;100.00
69153;BME280;56261;51.580;4.578;2023-10-09T01:39:40;102146.97;;;16.27;100.00
69153;BME280;56261;51.580;4.578;2023-10-09T01:42:07;102153.53;;;16.25;100.00
69153;BME280;56261;51.580;4.578;2023-10-09T01:44:34;102147.19;;;16.17;100.00
69153;BME280;56261;51.580;4.578;2023-10-09T01:47:01;102152.75;;;16.16;100.00
69153;BME280;56261;51.580;4.578;2023-10-09T01:49:35;102145.66;;;16.23;100.00
69153;BME280;56261;51.580;4.578;2023-10-09T01:52:03;102141.94;;;16.24;100.00
69153;BME280;56261;51.580;4.578;2023-10-09T01:54:38;102133.03;;;16.24;100.00
69153;BME280;56261;51.580;4.578;2023-10-09T01:57:06;102133.34;;;16.29;100.00
69153;BME280;56261;51.580;4.578;2023-10-09T01:59:36;102124.75;;;16.25;100.00
69153;BME280;56261;51.580;4.578;2023-10-09T02:02:09;102129.31;;;16.25;100.00
69153;BME280;56261;51.580;4.578;2023-10-09T02:04:54;102120.78;;;16.21;100.00
69153;BME280;56261;51.580;4.578;2023-10-09T02:07:30;102133.19;;;16.22;100.00
69153;BME280;56261;51.580;4.578;2023-10-09T02:10:05;102148.16;;;16.25;100.00
69153;BME280;56261;51.580;4.578;2023-10-09T02:12:36;102146.16;;;16.18;100.00
69153;BME280;56261;51.580;4.578;2023-10-09T02:15:02;102153.06;;;16.21;100.00
69153;BME280;56261;51.580;4.578;2023-10-09T02:17:40;102150.72;;;16.18;100.00
69153;BME280;56261;51.580;4.578;2023-10-09T02:20:17;102134.91;;;16.15;100.00
69153;BME280;56261;51.580;4.578;2023-10-09T02:22:54;102133.72;;;16.17;100.00
69153;BME280;56261;51.580;4.578;2023-10-09T02:25:19;102125.50;;;16.19;100.00
69153;BME280;56261;51.580;4.578;2023-10-09T02:27:46;102123.78;;;16.18;100.00
69153;BME280;56261;51.580;4.578;2023-10-09T02:30:19;102123.47;;;16.21;100.00
69153;BME280;56261;51.580;4.578;2023-10-09T02:32:53;102136.41;;;16.26;100.00
69153;BME280;56261;51.580;4.578;2023-10-09T02:35:24;102134.53;;;16.26;100.00
69153;BME280;56261;51.580;4.578;2023-10-09T02:38:03;102130.16;;;16.25;100.00
69153;BME280;56261;51.580;4.578;2023-10-09T02:40:32;102124.47;;;16.20;100.00
69153;BME280;56261;51.580;4.578;2023-10-09T02:43:05;102113.38;;;16.23;100.00
69153;BME280;56261;51.580;4.578;2023-10-09T02:45:30;102113.38;;;16.23;100.00
69153;BME280;56261;51.580;4.578;2023-10-09T02:48:00;102111.31;;;16.25;100.00
69153;BME280;56261;51.580;4.578;2023-10-09T02:50:34;102113.69;;;16.20;100.00
69153;BME280;56261;51.580;4.578;2023-10-09T02:53:03;102113.16;;;16.25;100.00
69153;BME280;56261;51.580;4.578;2023-10-09T02:55:34;102116.19;;;16.30;100.00
69153;BME280;56261;51.580;4.578;2023-10-09T02:58:03;102102.88;;;16.28;100.00
69153;BME280;56261;51.580;4.578;2023-10-09T03:00:36;102109.34;;;16.19;100.00
69153;BME280;56261;51.580;4.578;2023-10-09T03:03:05;102100.41;;;16.18;100.00
69153;BME280;56261;51.580;4.578;2023-10-09T03:05:32;102096.28;;;16.08;100.00
69153;BME280;56261;51.580;4.578;2023-10-09T03:07:58;102097.94;;;16.09;100.00
69153;BME280;56261;51.580;4.578;2023-10-09T03:10:24;102083.63;;;16.08;100.00
69153;BME280;56261;51.580;4.578;2023-10-09T03:12:53;102081.41;;;16.12;100.00
69153;BME280;56261;51.580;4.578;2023-10-09T03:15:19;102074.53;;;16.09;100.00
69153;BME280;56261;51.580;4.578;2023-10-09T03:17:46;102072.03;;;16.08;100.00
69153;BME280;56261;51.580;4.578;2023-10-09T03:20:13;102078.78;;;16.04;100.00
69153;BME280;56261;51.580;4.578;2023-10-09T03:22:39;102082.00;;;15.99;100.00
69153;BME280;56261;51.580;4.578;2023-10-09T03:25:06;102080.50;;;15.96;100.00
69153;BME280;56261;51.580;4.578;2023-10-09T03:27:38;102081.88;;;15.92;100.00
69153;BME280;56261;51.580;4.578;2023-10-09T03:30:04;102094.13;;;15.95;100.00
69153;BME280;56261;51.580;4.578;2023-10-09T03:32:30;102092.44;;;15.94;100.00
69153;BME280;56261;51.580;4.578;2023-10-09T03:34:56;102091.59;;;15.93;100.00
69153;BME280;56261;51.580;4.578;2023-10-09T03:37:24;102101.69;;;16.00;100.00
69153;BME280;56261;51.580;4.578;2023-10-09T03:40:00;102102.50;;;16.00;100.00
69153;BME280;56261;51.580;4.578;2023-10-09T03:42:26;102101.00;;;15.97;100.00
69153;BME280;56261;51.580;4.578;2023-10-09T03:44:51;102083.63;;;16.08;100.00
69153;BME280;56261;51.580;4.578;2023-10-09T03:47:18;102087.84;;;16.03;100.00
69153;BME280;56261;51.580;4.578;2023-10-09T03:49:48;102076.09;;;16.04;100.00
69153;BME280;56261;51.580;4.578;2023-10-09T03:52:16;102079.78;;;16.03;100.00
69153;BME280;56261;51.580;4.578;2023-10-09T03:54:43;102074.63;;;15.93;100.00
69153;BME280;56261;51.580;4.578;2023-10-09T03:57:11;102076.28;;;15.94;100.00
69153;BME280;56261;51.580;4.578;2023-10-09T03:59:39;102080.53;;;15.88;100.00
69153;BME280;56261;51.580;4.578;2023-10-09T04:02:05;102070.84;;;15.71;100.00
69153;BME280;56261;51.580;4.578;2023-10-09T04:04:30;102086.06;;;15.87;100.00
69153;BME280;56261;51.580;4.578;2023-10-09T04:06:58;102087.56;;;15.89;100.00
69153;BME280;56261;51.580;4.578;2023-10-09T04:09:24;102099.00;;;15.91;100.00
69153;BME280;56261;51.580;4.578;2023-10-09T04:11:53;102104.06;;;15.86;100.00
69153;BME280;56261;51.580;4.578;2023-10-09T04:14:38;102105.75;;;15.87;100.00
69153;BME280;56261;51.580;4.578;2023-10-09T04:17:15;102113.66;;;15.89;100.00
69153;BME280;56261;51.580;4.578;2023-10-09T04:19:47;102124.25;;;15.90;100.00
69153;BME280;56261;51.580;4.578;2023-10-09T04:22:39;102120.00;;;15.96;100.00
69153;BME280;56261;51.580;4.578;2023-10-09T04:25:14;102121.53;;;15.98;100.00
69153;BME280;56261;51.580;4.578;2023-10-09T04:27:41;102118.31;;;16.03;100.00
69153;BME280;56261;51.580;4.578;2023-10-09T04:30:07;102118.47;;;16.10;100.00
69153;BME280;56261;51.580;4.578;2023-10-09T04:32:33;102094.88;;;16.12;100.00
69153;BME280;56261;51.580;4.578;2023-10-09T04:35:00;102099.44;;;16.11;100.00
69153;BME280;56261;51.580;4.578;2023-10-09T04:37:49;102100.47;;;16.10;100.00
69153;BME280;56261;51.580;4.578;2023-10-09T04:40:32;102095.53;;;16.14;100.00
69153;BME280;56261;51.580;4.578;2023-10-09T04:43:14;102093.56;;;16.08;100.00
69153;BME280;56261;51.580;4.578;2023-10-09T04:45:48;102086.50;;;16.07;100.00
69153;BME280;56261;51.580;4.578;2023-10-09T04:48:32;102087.16;;;16.09;100.00
69153;BME280;56261;51.580;4.578;2023-10-09T04:51:01;102091.06;;;16.06;100.00
69153;BME280;56261;51.580;4.578;2023-10-09T04:53:45;102085.16;;;16.03;100.00
69153;BME280;56261;51.580;4.578;2023-10-09T04:56:13;102084.69;;;15.99;100.00
69153;BME280;56261;51.580;4.578;2023-10-09T04:58:41;102083.28;;;16.11;100.00
69153;BME280;56261;51.580;4.578;2023-10-09T05:01:06;102066.13;;;16.12;100.00
69153;BME280;56261;51.580;4.578;2023-10-09T05:03:39;102063.97;;;16.08;100.00
69153;BME280;56261;51.580;4.578;2023-10-09T05:06:05;102070.03;;;16.10;100.00
69153;BME280;56261;51.580;4.578;2023-10-09T05:08:48;102098.75;;;16.09;100.00
69153;BME280;56261;51.580;4.578;2023-10-09T05:11:15;102113.56;;;16.13;100.00
69153;BME280;56261;51.580;4.578;2023-10-09T05:13:59;102122.13;;;16.17;100.00
69153;BME280;56261;51.580;4.578;2023-10-09T05:16:38;102121.59;;;16.22;100.00
69153;BME280;56261;51.580;4.578;2023-10-09T05:19:19;102128.66;;;16.23;100.00
69153;BME280;56261;51.580;4.578;2023-10-09T05:21:59;102113.22;;;16.16;100.00
69153;BME280;56261;51.580;4.578;2023-10-09T05:24:32;102121.09;;;16.18;100.00
69153;BME280;56261;51.580;4.578;2023-10-09T05:27:08;102117.94;;;16.14;100.00
69153;BME280;56261;51.580;4.578;2023-10-09T05:29:43;102113.09;;;16.10;100.00
69153;BME280;56261;51.580;4.578;2023-10-09T05:32:35;102117.94;;;16.14;100.00
69153;BME280;56261;51.580;4.578;2023-10-09T05:35:13;102115.56;;;16.11;100.00
69153;BME280;56261;51.580;4.578;2023-10-09T05:37:45;102124.63;;;16.18;100.00
69153;BME280;56261;51.580;4.578;2023-10-09T05:40:12;102120.28;;;16.17;100.00
69153;BME280;56261;51.580;4.578;2023-10-09T05:42:41;102129.19;;;16.18;100.00
69153;BME280;56261;51.580;4.578;2023-10-09T05:47:53;102134.03;;;16.23;100.00
69153;BME280;56261;51.580;4.578;2023-10-09T05:53:00;102129.16;;;16.26;100.00
69153;BME280;56261;51.580;4.578;2023-10-09T05:55:32;102127.13;;;16.28;100.00
69153;BME280;56261;51.580;4.578;2023-10-09T05:58:03;102129.44;;;16.31;100.00
69153;BME280;56261;51.580;4.578;2023-10-09T06:00:34;102127.97;;;16.29;100.00
69153;BME280;56261;51.580;4.578;2023-10-09T06:03:21;102123.06;;;16.32;100.00
69153;BME280;56261;51.580;4.578;2023-10-09T06:06:13;102121.91;;;16.27;100.00
69153;BME280;56261;51.580;4.578;2023-10-09T06:08:56;102120.91;;;16.28;100.00
69153;BME280;56261;51.580;4.578;2023-10-09T06:11:41;102122.94;;;16.26;100.00
69153;BME280;56261;51.580;4.578;2023-10-09T06:14:15;102119.22;;;16.27;100.00
69153;BME280;56261;51.580;4.578;2023-10-09T06:16:51;102130.66;;;16.29;100.00
69153;BME280;56261;51.580;4.578;2023-10-09T06:19:23;102115.00;;;16.32;100.00
69153;BME280;56261;51.580;4.578;2023-10-09T06:21:49;102119.72;;;16.30;100.00
69153;BME280;56261;51.580;4.578;2023-10-09T06:24:20;102125.22;;;16.37;100.00
69153;BME280;56261;51.580;4.578;2023-10-09T06:26:48;102109.59;;;16.32;100.00
69153;BME280;56261;51.580;4.578;2023-10-09T06:29:38;102117.28;;;16.44;100.00
69153;BME280;56261;51.580;4.578;2023-10-09T06:32:11;102110.56;;;16.39;100.00
69153;BME280;56261;51.580;4.578;2023-10-09T06:35:01;102088.53;;;16.36;100.00
69153;BME280;56261;51.580;4.578;2023-10-09T06:38:02;102095.25;;;16.40;100.00
69153;BME280;56261;51.580;4.578;2023-10-09T06:40:38;102110.69;;;16.46;100.00
69153;BME280;56261;51.580;4.578;2023-10-09T06:43:04;102100.22;;;16.51;100.00
69153;BME280;56261;51.580;4.578;2023-10-09T06:45:42;102098.19;;;16.53;100.00
69153;BME280;56261;51.580;4.578;2023-10-09T06:48:11;102084.84;;;16.60;100.00
69153;BME280;56261;51.580;4.578;2023-10-09T06:51:02;102082.81;;;16.62;100.00
69153;BME280;56261;51.580;4.578;2023-10-09T06:53:46;102087.84;;;16.65;100.00
69153;BME280;56261;51.580;4.578;2023-10-09T06:56:27;102093.72;;;16.69;100.00
69153;BME280;56261;51.580;4.578;2023-10-09T06:58:56;102095.59;;;16.68;100.00
69153;BME280;56261;51.580;4.578;2023-10-09T07:01:23;102092.28;;;16.58;100.00
69153;BME280;56261;51.580;4.578;2023-10-09T07:04:07;102108.31;;;16.51;100.00
69153;BME280;56261;51.580;4.578;2023-10-09T07:06:53;102115.69;;;16.57;100.00
69153;BME280;56261;51.580;4.578;2023-10-09T07:09:21;102098.22;;;16.45;100.00
69153;BME280;56261;51.580;4.578;2023-10-09T07:11:51;102120.31;;;16.40;100.00
69153;BME280;56261;51.580;4.578;2023-10-09T07:14:18;102133.09;;;16.47;100.00
69153;BME280;56261;51.580;4.578;2023-10-09T07:19:29;102139.56;;;16.60;100.00
69153;BME280;56261;51.580;4.578;2023-10-09T07:22:23;102136.59;;;16.47;100.00
69153;BME280;56261;51.580;4.578;2023-10-09T07:24:57;102137.41;;;16.56;100.00
69153;BME280;56261;51.580;4.578;2023-10-09T07:27:24;102153.56;;;16.56;100.00
69153;BME280;56261;51.580;4.578;2023-10-09T07:30:13;102159.38;;;16.68;100.00
69153;BME280;56261;51.580;4.578;2023-10-09T07:33:00;102143.44;;;16.58;100.00
69153;BME280;56261;51.580;4.578;2023-10-09T07:35:46;102151.84;;;16.63;100.00
69153;BME280;56261;51.580;4.578;2023-10-09T07:38:23;102159.34;;;16.76;100.00
69153;BME280;56261;51.580;4.578;2023-10-09T07:40:54;102138.97;;;16.73;100.00
69153;BME280;56261;51.580;4.578;2023-10-09T07:43:40;102137.59;;;16.86;100.00
69153;BME280;56261;51.580;4.578;2023-10-09T07:46:11;102133.59;;;16.82;100.00
69153;BME280;56261;51.580;4.578;2023-10-09T07:48:58;102132.78;;;16.96;100.00
69153;BME280;56261;51.580;4.578;2023-10-09T07:51:26;102121.06;;;16.89;100.00
69153;BME280;56261;51.580;4.578;2023-10-09T07:54:00;102125.09;;;17.08;100.00
69153;BME280;56261;51.580;4.578;2023-10-09T07:56:33;102141.72;;;16.96;100.00
69153;BME280;56261;51.580;4.578;2023-10-09T07:59:09;102146.94;;;16.98;100.00
69153;BME280;56261;51.580;4.578;2023-10-09T08:01:42;102149.25;;;17.24;100.00
69153;BME280;56261;51.580;4.578;2023-10-09T08:04:20;102161.97;;;17.15;100.00
69153;BME280;56261;51.580;4.578;2023-10-09T08:07:09;102164.59;;;17.24;100.00
69153;BME280;56261;51.580;4.578;2023-10-09T08:09:35;102168.69;;;17.19;100.00
69153;BME280;56261;51.580;4.578;2023-10-09T08:12:11;102173.16;;;17.27;100.00
69153;BME280;56261;51.580;4.578;2023-10-09T08:14:56;102173.41;;;17.17;100.00
69153;BME280;56261;51.580;4.578;2023-10-09T08:17:42;102161.97;;;17.30;100.00
69153;BME280;56261;51.580;4.578;2023-10-09T08:20:13;102161.38;;;17.43;100.00
69153;BME280;56261;51.580;4.578;2023-10-09T08:22:42;102162.44;;;17.72;100.00
69153;BME280;56261;51.580;4.578;2023-10-09T08:25:18;102154.63;;;17.62;100.00
69153;BME280;56261;51.580;4.578;2023-10-09T08:27:57;102150.94;;;17.78;100.00
69153;BME280;56261;51.580;4.578;2023-10-09T08:30:26;102137.75;;;17.83;100.00
69153;BME280;56261;51.580;4.578;2023-10-09T08:32:52;102139.69;;;17.89;100.00
69153;BME280;56261;51.580;4.578;2023-10-09T08:35:34;102140.22;;;17.99;100.00
69153;BME280;56261;51.580;4.578;2023-10-09T08:38:11;102132.53;;;17.96;100.00
69153;BME280;56261;51.580;4.578;2023-10-09T08:40:38;102125.25;;;17.97;100.00
69153;BME280;56261;51.580;4.578;2023-10-09T08:43:17;102130.66;;;17.97;100.00
69153;BME280;56261;51.580;4.578;2023-10-09T08:45:48;102126.84;;;17.91;100.00
69153;BME280;56261;51.580;4.578;2023-10-09T08:48:17;102135.97;;;18.05;100.00
69153;BME280;56261;51.580;4.578;2023-10-09T08:50:44;102119.19;;;18.10;100.00
69153;BME280;56261;51.580;4.578;2023-10-09T08:53:11;102138.94;;;18.10;100.00
69153;BME280;56261;51.580;4.578;2023-10-09T08:55:37;102135.31;;;18.18;100.00
69153;BME280;56261;51.580;4.578;2023-10-09T08:58:06;102145.34;;;18.24;100.00
69153;BME280;56261;51.580;4.578;2023-10-09T09:00:44;102144.31;;;18.25;100.00
69153;BME280;56261;51.580;4.578;2023-10-09T09:03:21;102140.38;;;18.42;100.00
69153;BME280;56261;51.580;4.578;2023-10-09T09:06:00;102147.28;;;18.30;100.00
69153;BME280;56261;51.580;4.578;2023-10-09T09:08:28;102159.97;;;18.15;100.00
69153;BME280;56261;51.580;4.578;2023-10-09T09:11:04;102159.50;;;18.26;100.00
69153;BME280;56261;51.580;4.578;2023-10-09T09:16:22;102143.19;;;18.19;100.00
69153;BME280;56261;51.580;4.578;2023-10-09T09:18:59;102151.34;;;18.56;100.00
69153;BME280;56261;51.580;4.578;2023-10-09T09:21:37;102155.75;;;18.42;100.00
69153;BME280;56261;51.580;4.578;2023-10-09T09:24:07;102162.06;;;18.49;100.00
69153;BME280;56261;51.580;4.578;2023-10-09T09:26:53;102153.41;;;18.54;100.00
69153;BME280;56261;51.580;4.578;2023-10-09T09:32:02;102184.38;;;18.73;100.00
69153;BME280;56261;51.580;4.578;2023-10-09T09:34:47;102191.56;;;18.80;100.00
69153;BME280;56261;51.580;4.578;2023-10-09T09:39:46;102199.69;;;19.02;100.00
69153;BME280;56261;51.580;4.578;2023-10-09T09:42:18;102204.03;;;18.81;100.00
69153;BME280;56261;51.580;4.578;2023-10-09T09:44:51;102212.38;;;19.01;100.00
69153;BME280;56261;51.580;4.578;2023-10-09T09:47:16;102208.66;;;19.02;100.00
69153;BME280;56261;51.580;4.578;2023-10-09T09:49:48;102214.13;;;19.09;100.00
69153;BME280;56261;51.580;4.578;2023-10-09T09:52:16;102215.53;;;19.05;100.00
69153;BME280;56261;51.580;4.578;2023-10-09T09:54:43;102222.25;;;19.09;100.00
69153;BME280;56261;51.580;4.578;2023-10-09T09:57:11;102224.31;;;19.07;100.00
69153;BME280;56261;51.580;4.578;2023-10-09T09:59:41;102232.66;;;19.12;100.00
69153;BME280;56261;51.580;4.578;2023-10-09T10:02:20;102228.59;;;19.01;100.00
69153;BME280;56261;51.580;4.578;2023-10-09T10:04:50;102224.69;;;19.25;100.00
69153;BME280;56261;51.580;4.578;2023-10-09T10:07:17;102237.44;;;19.32;100.00
69153;BME280;56261;51.580;4.578;2023-10-09T10:09:46;102221.00;;;19.33;100.00
69153;BME280;56261;51.580;4.578;2023-10-09T10:12:14;102235.31;;;19.27;100.00
69153;BME280;56261;51.580;4.578;2023-10-09T10:14:59;102229.94;;;19.55;100.00
69153;BME280;56261;51.580;4.578;2023-10-09T10:17:32;102223.75;;;19.61;100.00
69153;BME280;56261;51.580;4.578;2023-10-09T10:20:17;102222.03;;;19.32;100.00
69153;BME280;56261;51.580;4.578;2023-10-09T10:22:43;102214.28;;;19.50;100.00
69153;BME280;56261;51.580;4.578;2023-10-09T10:28:22;102215.44;;;19.63;100.00
69153;BME280;56261;51.580;4.578;2023-10-09T10:30:54;102208.16;;;19.85;100.00
69153;BME280;56261;51.580;4.578;2023-10-09T10:33:20;102210.84;;;19.85;100.00
69153;BME280;56261;51.580;4.578;2023-10-09T10:35:48;102206.22;;;19.79;100.00
69153;BME280;56261;51.580;4.578;2023-10-09T10:41:18;102210.34;;;19.75;100.00
69153;BME280;56261;51.580;4.578;2023-10-09T10:43:48;102218.38;;;19.89;100.00
69153;BME280;56261;51.580;4.578;2023-10-09T10:46:23;102215.00;;;19.81;100.00
69153;BME280;56261;51.580;4.578;2023-10-09T10:48:49;102221.88;;;19.83;100.00
69153;BME280;56261;51.580;4.578;2023-10-09T10:51:15;102237.47;;;19.81;100.00
69153;BME280;56261;51.580;4.578;2023-10-09T10:53:54;102229.09;;;20.04;100.00
69153;BME280;56261;51.580;4.578;2023-10-09T10:56:25;102222.69;;;20.12;100.00
69153;BME280;56261;51.580;4.578;2023-10-09T10:59:00;102221.84;;;20.11;100.00
69153;BME280;56261;51.580;4.578;2023-10-09T11:01:32;102222.63;;;19.99;100.00
69153;BME280;56261;51.580;4.578;2023-10-09T11:04:20;102222.66;;;20.05;100.00
69153;BME280;56261;51.580;4.578;2023-10-09T11:06:58;102216.41;;;20.11;100.00
69153;BME280;56261;51.580;4.578;2023-10-09T11:09:57;102217.84;;;20.01;100.00
69153;BME280;56261;51.580;4.578;2023-10-09T11:12:44;102208.94;;;20.14;100.00
69153;BME280;56261;51.580;4.578;2023-10-09T11:15:12;102215.00;;;20.16;100.00
69153;BME280;56261;51.580;4.578;2023-10-09T11:18:02;102229.38;;;20.16;100.00
69153;BME280;56261;51.580;4.578;2023-10-09T11:20:34;102230.53;;;20.35;100.00
69153;BME280;56261;51.580;4.578;2023-10-09T11:23:05;102231.06;;;20.17;100.00
69153;BME280;56261;51.580;4.578;2023-10-09T11:25:46;102231.84;;;20.11;100.00
69153;BME280;56261;51.580;4.578;2023-10-09T11:28:40;102228.97;;;20.19;100.00
69153;BME280;56261;51.580;4.578;2023-10-09T11:31:14;102228.19;;;20.25;100.00
69153;BME280;56261;51.580;4.578;2023-10-09T11:33:52;102234.16;;;20.56;100.00
69153;BME280;56261;51.580;4.578;2023-10-09T11:36:20;102229.44;;;20.64;100.00
69153;BME280;56261;51.580;4.578;2023-10-09T11:39:02;102231.09;;;20.59;100.00
69153;BME280;56261;51.580;4.578;2023-10-09T11:41:44;102228.81;;;20.69;100.00
69153;BME280;56261;51.580;4.578;2023-10-09T11:44:15;102227.66;;;20.43;100.00
69153;BME280;56261;51.580;4.578;2023-10-09T11:46:57;102237.59;;;20.71;100.00
69153;BME280;56261;51.580;4.578;2023-10-09T11:49:23;102230.91;;;20.67;100.00
69153;BME280;56261;51.580;4.578;2023-10-09T11:52:05;102233.59;;;20.67;100.00
69153;BME280;56261;51.580;4.578;2023-10-09T11:54:34;102236.09;;;20.62;100.00
69153;BME280;56261;51.580;4.578;2023-10-09T11:57:00;102220.53;;;20.77;100.00
69153;BME280;56261;51.580;4.578;2023-10-09T11:59:28;102210.53;;;20.84;100.00
69153;BME280;56261;51.580;4.578;2023-10-09T12:02:06;102212.41;;;20.84;100.00
69153;BME280;56261;51.580;4.578;2023-10-09T12:04:42;102209.66;;;20.77;100.00
69153;BME280;56261;51.580;4.578;2023-10-09T12:07:10;102211.47;;;20.57;100.00
69153;BME280;56261;51.580;4.578;2023-10-09T12:09:39;102204.84;;;20.66;100.00
69153;BME280;56261;51.580;4.578;2023-10-09T12:12:05;102207.16;;;20.76;100.00
69153;BME280;56261;51.580;4.578;2023-10-09T12:14:31;102206.06;;;20.57;100.00
69153;BME280;56261;51.580;4.578;2023-10-09T12:17:03;102210.31;;;20.38;100.00
69153;BME280;56261;51.580;4.578;2023-10-09T12:19:36;102202.66;;;20.48;100.00
69153;BME280;56261;51.580;4.578;2023-10-09T12:22:03;102199.53;;;20.51;100.00
69153;BME280;56261;51.580;4.578;2023-10-09T12:24:32;102193.34;;;20.64;100.00
69153;BME280;56261;51.580;4.578;2023-10-09T12:27:00;102193.13;;;20.59;100.00
69153;BME280;56261;51.580;4.578;2023-10-09T12:29:26;102186.53;;;20.81;100.00
69153;BME280;56261;51.580;4.578;2023-10-09T12:31:58;102181.53;;;20.91;100.00
69153;BME280;56261;51.580;4.578;2023-10-09T12:34:27;102173.34;;;20.71;100.00
69153;BME280;56261;51.580;4.578;2023-10-09T12:36:56;102184.69;;;21.02;100.00
69153;BME280;56261;51.580;4.578;2023-10-09T12:39:26;102185.31;;;21.04;100.00
69153;BME280;56261;51.580;4.578;2023-10-09T12:41:56;102174.25;;;21.19;100.00
69153;BME280;56261;51.580;4.578;2023-10-09T12:44:23;102163.81;;;21.02;100.00
69153;BME280;56261;51.580;4.578;2023-10-09T12:46:52;102170.06;;;21.03;100.00
69153;BME280;56261;51.580;4.578;2023-10-09T12:49:21;102165.72;;;21.15;100.00
69153;BME280;56261;51.580;4.578;2023-10-09T12:51:51;102162.16;;;20.94;100.00
69153;BME280;56261;51.580;4.578;2023-10-09T12:54:17;102162.78;;;20.97;100.00
69153;BME280;56261;51.580;4.578;2023-10-09T12:56:45;102168.44;;;21.22;100.00
69153;BME280;56261;51.580;4.578;2023-10-09T12:59:14;102166.31;;;20.97;100.00
69153;BME280;56261;51.580;4.578;2023-10-09T13:01:41;102176.34;;;21.03;100.00
69153;BME280;56261;51.580;4.578;2023-10-09T13:04:13;102173.41;;;21.05;100.00
69153;BME280;56261;51.580;4.578;2023-10-09T13:06:45;102172.13;;;20.87;100.00
69153;BME280;56261;51.580;4.578;2023-10-09T13:09:15;102175.91;;;20.93;100.00
69153;BME280;56261;51.580;4.578;2023-10-09T13:11:42;102179.25;;;21.02;100.00
69153;BME280;56261;51.580;4.578;2023-10-09T13:14:08;102170.47;;;20.86;100.00
69153;BME280;56261;51.580;4.578;2023-10-09T13:16:45;102162.34;;;20.86;100.00
69153;BME280;56261;51.580;4.578;2023-10-09T13:19:11;102181.91;;;20.75;100.00
69153;BME280;56261;51.580;4.578;2023-10-09T13:21:37;102169.63;;;20.79;100.00
69153;BME280;56261;51.580;4.578;2023-10-09T13:24:04;102184.22;;;20.78;100.00
69153;BME280;56261;51.580;4.578;2023-10-09T13:26:30;102187.16;;;20.83;100.00
69153;BME280;56261;51.580;4.578;2023-10-09T13:28:58;102186.78;;;21.00;100.00
69153;BME280;56261;51.580;4.578;2023-10-09T13:31:25;102188.88;;;21.11;100.00